createdAt,value
2017-10-15T00:00:03.892Z,54.00
2017-10-15T00:01:02.968Z,54.10
2017-10-15T00:02:03.417Z,52.70
2017-10-15T00:03:03.913Z,57.00
2017-10-15T00:04:04.045Z,47.70
2017-10-15T00:05:03.610Z,45.90
2017-10-15T00:06:03.339Z,42.10
2017-10-15T00:07:03.484Z,41.60
2017-10-15T00:08:04.009Z,39.00
2017-10-15T00:09:02.986Z,42.30
2017-10-15T00:10:03.284Z,35.90
2017-10-15T00:11:03.855Z,36.40
2017-10-15T00:12:03.356Z,43.90
2017-10-15T00:13:04.071Z,43.90
2017-10-15T00:14:03.427Z,39.90
2017-10-15T00:15:03.881Z,45.20
2017-10-15T00:16:03.724Z,40.30
2017-10-15T00:17:02.900Z,37.10
2017-10-15T00:18:03.146Z,34.90
2017-10-15T00:19:03.419Z,35.90
2017-10-15T00:20:03.195Z,36.90
2017-10-15T00:21:04.125Z,48.40
2017-10-15T00:22:03.536Z,35.20
2017-10-15T00:23:03.320Z,43.70
2017-10-15T00:24:03.864Z,41.70
2017-10-15T00:25:02.790Z,41.00
2017-10-15T00:26:03.832Z,40.30
2017-10-15T00:27:02.826Z,41.70
2017-10-15T00:28:02.546Z,51.40
2017-10-15T00:29:03.990Z,43.40
2017-10-15T00:30:03.546Z,49.40
2017-10-15T00:31:02.685Z,45.90
2017-10-15T00:32:03.937Z,44.90
2017-10-15T00:33:02.866Z,49.70
2017-10-15T00:34:03.039Z,53.00
2017-10-15T00:35:03.412Z,54.10
2017-10-15T00:36:03.880Z,58.10
2017-10-15T00:37:02.974Z,53.60
2017-10-15T00:38:03.660Z,72.50
2017-10-15T00:39:03.658Z,83.40
2017-10-15T00:40:03.191Z,82.70
2017-10-15T00:41:03.372Z,87.10
2017-10-15T00:42:03.718Z,80.30
2017-10-15T00:43:03.299Z,84.70
2017-10-15T00:44:03.352Z,89.90
2017-10-15T00:45:03.333Z,75.30
2017-10-15T00:46:03.471Z,78.10
2017-10-15T00:47:03.475Z,81.00
2017-10-15T00:48:02.867Z,70.30
2017-10-15T00:49:03.224Z,75.10
2017-10-15T00:50:03.427Z,82.00
2017-10-15T00:51:03.430Z,75.10
2017-10-15T00:52:03.333Z,80.70
2017-10-15T00:53:03.208Z,81.20
2017-10-15T00:54:03.918Z,80.50
2017-10-15T00:55:02.581Z,76.90
2017-10-15T00:56:02.600Z,70.70
2017-10-15T00:57:03.480Z,73.10
2017-10-15T00:58:03.527Z,69.80
2017-10-15T00:59:02.754Z,67.40
2017-10-15T01:00:03.555Z,69.30
2017-10-15T01:01:02.768Z,69.20
2017-10-15T01:02:02.718Z,94.00
2017-10-15T01:03:02.786Z,101.40
2017-10-15T01:04:03.218Z,101.50
2017-10-15T01:05:03.769Z,92.50
2017-10-15T01:06:02.755Z,99.20
2017-10-15T01:07:03.128Z,90.60
2017-10-15T01:08:03.330Z,91.90
2017-10-15T01:09:03.120Z,108.50
2017-10-15T01:10:04.141Z,107.80
2017-10-15T01:11:03.137Z,103.50
2017-10-15T01:12:02.955Z,104.90
2017-10-15T01:13:02.819Z,101.10
2017-10-15T01:14:02.577Z,103.60
2017-10-15T01:15:03.611Z,103.90
2017-10-15T01:16:03.028Z,94.90
2017-10-15T01:17:02.883Z,100.30
2017-10-15T01:18:03.199Z,102.30
2017-10-15T01:19:03.473Z,90.90
2017-10-15T01:20:03.761Z,91.00
2017-10-15T01:21:02.699Z,101.20
2017-10-15T01:22:03.047Z,96.50
2017-10-15T01:23:03.636Z,94.20
2017-10-15T01:24:02.830Z,100.90
2017-10-15T01:25:02.940Z,104.80
2017-10-15T01:26:03.340Z,101.10
2017-10-15T01:27:03.658Z,91.90
2017-10-15T01:28:02.951Z,104.00
2017-10-15T01:29:03.749Z,103.70
2017-10-15T01:30:02.642Z,94.00
2017-10-15T01:31:02.570Z,96.40
2017-10-15T01:32:02.838Z,97.10
2017-10-15T01:33:03.208Z,104.20
2017-10-15T01:34:03.327Z,98.60
2017-10-15T01:35:03.719Z,103.40
2017-10-15T01:36:03.008Z,127.30
2017-10-15T01:37:04.109Z,109.70
2017-10-15T01:38:03.346Z,120.00
2017-10-15T01:39:03.737Z,129.50
2017-10-15T01:40:02.830Z,122.00
2017-10-15T01:41:03.313Z,121.40
2017-10-15T01:42:05.110Z,100.90
2017-10-15T01:43:03.740Z,104.30
2017-10-15T01:44:02.919Z,108.30
2017-10-15T01:45:02.954Z,101.40
2017-10-15T01:46:03.093Z,105.50
2017-10-15T01:47:03.413Z,91.80
2017-10-15T01:48:03.340Z,100.80
2017-10-15T01:49:03.610Z,103.00
2017-10-15T01:50:02.752Z,99.50
2017-10-15T01:51:02.668Z,99.40
2017-10-15T01:52:02.502Z,104.70
2017-10-15T01:53:03.139Z,133.00
2017-10-15T01:54:03.873Z,127.40
2017-10-15T01:55:03.071Z,144.40
2017-10-15T01:56:03.020Z,145.10
2017-10-15T01:57:03.427Z,137.60
2017-10-15T01:58:03.304Z,150.50
2017-10-15T01:59:04.069Z,131.10
2017-10-15T02:00:03.391Z,131.80
2017-10-15T02:01:02.554Z,130.00
2017-10-15T02:02:03.111Z,128.00
2017-10-15T02:03:03.521Z,150.70
2017-10-15T02:04:04.277Z,158.00
2017-10-15T02:05:03.601Z,161.90
2017-10-15T02:06:02.826Z,152.70
2017-10-15T02:07:02.877Z,151.30
2017-10-15T02:08:02.860Z,178.10
2017-10-15T02:09:02.779Z,176.10
2017-10-15T02:10:03.456Z,161.60
2017-10-15T02:11:03.879Z,159.70
2017-10-15T02:12:03.423Z,166.00
2017-10-15T02:13:03.410Z,168.00
2017-10-15T02:14:03.718Z,165.30
2017-10-15T02:15:02.913Z,161.50
2017-10-15T02:16:03.611Z,133.90
2017-10-15T02:17:02.712Z,153.00
2017-10-15T02:18:03.135Z,152.70
2017-10-15T02:19:03.581Z,152.40
2017-10-15T02:20:03.557Z,161.40
2017-10-15T02:21:02.767Z,187.20
2017-10-15T02:22:03.190Z,179.30
2017-10-15T02:23:03.540Z,166.50
2017-10-15T02:24:03.706Z,158.40
2017-10-15T02:25:02.929Z,218.30
2017-10-15T02:26:03.423Z,289.40
2017-10-15T02:27:05.021Z,178.00
2017-10-15T02:28:03.505Z,222.80
2017-10-15T02:29:03.058Z,304.10
2017-10-15T02:30:03.232Z,454.90
2017-10-15T02:31:03.242Z,415.30
2017-10-15T02:32:03.466Z,391.00
2017-10-15T02:33:03.166Z,399.80
2017-10-15T02:34:03.307Z,405.20
2017-10-15T02:35:03.817Z,370.00
2017-10-15T02:36:03.211Z,205.00
2017-10-15T02:37:02.915Z,206.80
2017-10-15T02:38:03.733Z,235.80
2017-10-15T02:39:02.653Z,215.80
2017-10-15T02:40:02.925Z,211.50
2017-10-15T02:41:03.036Z,231.20
2017-10-15T02:42:03.329Z,232.50
2017-10-15T02:43:04.102Z,263.30
2017-10-15T02:44:04.521Z,257.90
2017-10-15T02:45:03.390Z,222.60
2017-10-15T02:46:03.300Z,232.50
2017-10-15T02:47:02.546Z,268.20
2017-10-15T02:48:03.814Z,247.30
2017-10-15T02:49:03.677Z,308.00
2017-10-15T02:50:02.856Z,234.00
2017-10-15T02:51:03.067Z,223.80
2017-10-15T02:52:02.978Z,233.90
2017-10-15T02:53:02.902Z,268.50
2017-10-15T02:54:03.576Z,208.60
2017-10-15T02:55:03.086Z,232.50
2017-10-15T02:56:03.270Z,245.90
2017-10-15T02:57:03.666Z,253.00
2017-10-15T02:58:03.248Z,246.80
2017-10-15T02:59:03.675Z,268.80
2017-10-15T03:00:02.893Z,278.30
2017-10-15T03:01:03.132Z,224.10
2017-10-15T03:02:03.262Z,275.40
2017-10-15T03:03:03.704Z,293.60
2017-10-15T03:04:02.604Z,268.80
2017-10-15T03:05:03.349Z,268.40
2017-10-15T03:06:03.571Z,284.50
2017-10-15T03:07:03.060Z,317.80
2017-10-15T03:08:03.105Z,373.70
2017-10-15T03:09:03.017Z,331.10
2017-10-15T03:10:03.209Z,284.20
2017-10-15T03:11:03.216Z,327.30
2017-10-15T03:12:03.609Z,252.20
2017-10-15T03:13:02.849Z,266.10
2017-10-15T03:14:02.562Z,262.00
2017-10-15T03:15:03.277Z,368.60
2017-10-15T03:16:02.964Z,331.60
2017-10-15T03:17:02.907Z,354.70
2017-10-15T03:18:02.793Z,301.40
2017-10-15T03:19:02.931Z,359.10
2017-10-15T03:20:03.543Z,252.80
2017-10-15T03:21:02.529Z,306.50
2017-10-15T03:22:02.931Z,254.10
2017-10-15T03:23:02.998Z,260.90
2017-10-15T03:24:02.961Z,269.40
2017-10-15T03:25:03.251Z,261.00
2017-10-15T03:26:02.981Z,293.20
2017-10-15T03:27:03.408Z,313.80
2017-10-15T03:28:02.973Z,303.90
2017-10-15T03:29:02.983Z,333.80
2017-10-15T03:30:03.487Z,372.70
2017-10-15T03:31:02.985Z,367.90
2017-10-15T03:32:02.909Z,342.00
2017-10-15T03:33:02.689Z,336.60
2017-10-15T03:34:03.064Z,371.40
2017-10-15T03:35:03.654Z,352.40
2017-10-15T03:36:02.995Z,292.20
2017-10-15T03:37:02.907Z,292.80
2017-10-15T03:38:02.516Z,317.90
2017-10-15T03:39:02.395Z,270.90
2017-10-15T03:40:03.724Z,269.60
2017-10-15T03:41:03.249Z,270.90
2017-10-15T03:42:03.074Z,230.20
2017-10-15T03:43:02.981Z,206.50
2017-10-15T03:44:03.292Z,251.40
2017-10-15T03:45:03.376Z,260.00
2017-10-15T03:46:02.356Z,279.80
2017-10-15T03:47:03.717Z,268.00
2017-10-15T03:48:03.241Z,267.20
2017-10-15T03:49:02.595Z,266.00
2017-10-15T03:50:03.050Z,266.90
2017-10-15T03:51:03.755Z,280.40
2017-10-15T03:52:03.623Z,332.30
2017-10-15T03:53:03.049Z,308.00
2017-10-15T03:54:02.874Z,282.60
2017-10-15T03:55:03.422Z,279.50
2017-10-15T03:56:02.761Z,291.40
2017-10-15T03:57:03.664Z,284.40
2017-10-15T03:58:02.657Z,299.70
2017-10-15T03:59:03.166Z,303.00
2017-10-15T04:00:03.217Z,324.00
2017-10-15T04:01:03.520Z,343.90
2017-10-15T04:02:02.899Z,333.80
2017-10-15T04:03:03.182Z,330.30
2017-10-15T04:04:03.564Z,316.10
2017-10-15T04:05:03.068Z,314.20
2017-10-15T04:06:03.353Z,318.60
2017-10-15T04:07:02.766Z,309.40
2017-10-15T04:08:03.710Z,313.80
2017-10-15T04:09:02.590Z,323.00
2017-10-15T04:10:02.796Z,303.50
2017-10-15T04:11:03.191Z,323.50
2017-10-15T04:12:03.572Z,319.70
2017-10-15T04:13:03.573Z,301.70
2017-10-15T04:14:02.517Z,300.00
2017-10-15T04:15:03.312Z,312.40
2017-10-15T04:16:03.146Z,306.00
2017-10-15T04:17:03.167Z,287.50
2017-10-15T04:18:03.725Z,312.90
2017-10-15T04:19:02.733Z,294.70
2017-10-15T04:20:02.681Z,288.10
2017-10-15T04:21:02.641Z,310.90
2017-10-15T04:22:02.603Z,338.30
2017-10-15T04:23:03.264Z,335.20
2017-10-15T04:24:03.917Z,328.90
2017-10-15T04:25:02.726Z,317.10
2017-10-15T04:26:02.942Z,312.30
2017-10-15T04:27:02.864Z,302.30
2017-10-15T04:28:03.126Z,264.30
2017-10-15T04:29:03.812Z,331.10
2017-10-15T04:30:02.610Z,312.90
2017-10-15T04:31:02.415Z,336.10
2017-10-15T04:32:03.712Z,337.80
2017-10-15T04:33:03.123Z,334.20
2017-10-15T04:34:02.766Z,328.40
2017-10-15T04:35:03.459Z,316.10
2017-10-15T04:36:02.851Z,320.70
2017-10-15T04:37:03.220Z,328.10
2017-10-15T04:38:03.236Z,314.50
2017-10-15T04:39:03.547Z,318.60
2017-10-15T04:40:02.934Z,379.00
2017-10-15T04:41:03.421Z,322.60
2017-10-15T04:42:02.603Z,311.40
2017-10-15T04:43:02.916Z,310.50
2017-10-15T04:44:02.959Z,291.20
2017-10-15T04:45:02.965Z,285.00
2017-10-15T04:46:03.485Z,299.00
2017-10-15T04:47:02.990Z,332.10
2017-10-15T04:48:03.359Z,324.40
2017-10-15T04:49:02.756Z,299.70
2017-10-15T04:50:02.602Z,294.30
2017-10-15T04:51:02.804Z,319.60
2017-10-15T04:52:03.663Z,301.70
2017-10-15T04:53:03.113Z,297.10
2017-10-15T04:54:02.934Z,282.70
2017-10-15T04:55:02.609Z,306.30
2017-10-15T04:56:03.035Z,269.50
2017-10-15T04:57:02.773Z,263.20
2017-10-15T04:58:03.465Z,263.60
2017-10-15T04:59:02.941Z,265.00
2017-10-15T05:00:03.306Z,252.20
2017-10-15T05:01:03.685Z,250.30
2017-10-15T05:02:02.806Z,250.00
2017-10-15T05:03:03.495Z,238.40
2017-10-15T05:04:02.783Z,234.40
2017-10-15T05:05:02.562Z,203.70
2017-10-15T05:06:03.023Z,209.30
2017-10-15T05:07:03.248Z,207.90
2017-10-15T05:08:03.620Z,194.10
2017-10-15T05:09:03.195Z,202.40
2017-10-15T05:10:03.507Z,199.70
2017-10-15T05:11:02.396Z,218.40
2017-10-15T05:12:02.355Z,195.80
2017-10-15T05:13:02.357Z,184.70
2017-10-15T05:14:03.202Z,178.30
2017-10-15T05:15:03.199Z,195.90
2017-10-15T05:16:03.232Z,195.80
2017-10-15T05:17:02.747Z,195.80
2017-10-15T05:18:02.741Z,208.50
2017-10-15T05:19:03.273Z,191.10
2017-10-15T05:20:03.079Z,206.30
2017-10-15T05:21:03.368Z,189.00
2017-10-15T05:22:03.214Z,201.70
2017-10-15T05:23:03.160Z,197.00
2017-10-15T05:24:03.446Z,209.20
2017-10-15T05:25:02.873Z,173.70
2017-10-15T05:26:02.961Z,196.40
2017-10-15T05:27:03.161Z,192.30
2017-10-15T05:28:03.600Z,181.80
2017-10-15T05:29:03.889Z,184.60
2017-10-15T05:30:03.169Z,174.40
2017-10-15T05:31:02.658Z,175.50
2017-10-15T05:32:02.777Z,176.00
2017-10-15T05:33:03.344Z,164.50
2017-10-15T05:34:03.569Z,165.30
2017-10-15T05:35:02.511Z,173.00
2017-10-15T05:36:02.671Z,191.20
2017-10-15T05:37:02.402Z,205.60
2017-10-15T05:38:02.685Z,208.60
2017-10-15T05:39:02.658Z,191.00
2017-10-15T05:40:03.481Z,187.80
2017-10-15T05:41:02.409Z,196.10
2017-10-15T05:42:02.969Z,184.80
2017-10-15T05:43:03.169Z,203.00
2017-10-15T05:44:03.134Z,200.20
2017-10-15T05:45:02.332Z,195.60
2017-10-15T05:46:03.607Z,195.60
2017-10-15T05:47:02.801Z,195.50
2017-10-15T05:48:02.751Z,175.30
2017-10-15T05:49:02.745Z,180.50
2017-10-15T05:50:02.733Z,178.50
2017-10-15T05:51:03.133Z,182.30
2017-10-15T05:52:03.408Z,201.40
2017-10-15T05:53:03.158Z,185.30
2017-10-15T05:54:03.145Z,176.90
2017-10-15T05:55:03.120Z,177.10
2017-10-15T05:56:03.748Z,178.80
2017-10-15T05:57:02.903Z,177.90
2017-10-15T05:58:03.698Z,168.00
2017-10-15T05:59:02.682Z,158.60
2017-10-15T06:00:03.018Z,152.60
2017-10-15T06:01:03.627Z,151.60
2017-10-15T06:02:02.741Z,152.40
2017-10-15T06:03:03.043Z,136.10
2017-10-15T06:04:03.351Z,151.20
2017-10-15T06:05:03.189Z,155.80
2017-10-15T06:06:02.680Z,144.20
2017-10-15T06:07:03.133Z,151.40
2017-10-15T06:08:03.649Z,158.50
2017-10-15T06:09:03.112Z,147.00
2017-10-15T06:10:03.740Z,161.40
2017-10-15T06:11:03.267Z,147.70
2017-10-15T06:12:04.032Z,154.30
2017-10-15T06:13:03.408Z,141.70
2017-10-15T06:14:02.811Z,148.10
2017-10-15T06:15:02.845Z,148.10
2017-10-15T06:16:03.302Z,152.60
2017-10-15T06:17:03.818Z,158.60
2017-10-15T06:18:03.377Z,142.90
2017-10-15T06:19:02.885Z,164.80
2017-10-15T06:20:03.273Z,149.00
2017-10-15T06:21:02.781Z,145.80
2017-10-15T06:22:03.070Z,136.00
2017-10-15T06:23:03.516Z,141.10
2017-10-15T06:24:02.906Z,120.20
2017-10-15T06:25:03.427Z,112.80
2017-10-15T06:26:02.859Z,106.30
2017-10-15T06:27:03.327Z,99.50
2017-10-15T06:28:02.863Z,98.00
2017-10-15T06:29:03.449Z,85.60
2017-10-15T06:30:02.507Z,86.20
2017-10-15T06:31:03.071Z,73.10
2017-10-15T06:32:04.175Z,75.30
2017-10-15T06:33:02.655Z,70.80
2017-10-15T06:34:03.038Z,64.00
2017-10-15T06:35:03.352Z,59.60
2017-10-15T06:36:02.786Z,54.20
2017-10-15T06:37:02.959Z,51.20
2017-10-15T06:38:03.936Z,53.00
2017-10-15T06:39:03.502Z,46.90
2017-10-15T06:40:03.095Z,51.30
2017-10-15T06:41:03.154Z,47.40
2017-10-15T06:42:03.293Z,48.20
2017-10-15T06:43:02.686Z,50.50
2017-10-15T06:44:03.617Z,49.30
2017-10-15T06:45:03.005Z,46.90
2017-10-15T06:46:03.302Z,52.10
2017-10-15T06:47:02.310Z,47.80
2017-10-15T06:48:16.974Z,53.10
2017-10-15T06:49:11.376Z,50.00
2017-10-15T06:50:16.842Z,51.30
2017-10-15T06:51:03.300Z,53.40
2017-10-15T06:52:03.745Z,52.10
2017-10-15T06:53:03.163Z,47.30
2017-10-15T06:54:03.401Z,47.80
2017-10-15T06:55:02.910Z,52.00
2017-10-15T06:56:03.630Z,53.00
2017-10-15T06:57:02.741Z,55.00
2017-10-15T06:58:03.442Z,51.90
2017-10-15T06:59:02.800Z,51.00
2017-10-15T07:00:03.223Z,45.90
2017-10-15T07:01:02.709Z,46.90
2017-10-15T07:02:03.165Z,44.40
2017-10-15T07:03:03.325Z,49.30
2017-10-15T07:04:03.630Z,42.30
2017-10-15T07:05:03.352Z,35.80
2017-10-15T07:06:02.383Z,29.80
2017-10-15T07:07:02.454Z,27.70
2017-10-15T07:08:03.129Z,24.00
2017-10-15T07:09:03.662Z,23.50
2017-10-15T07:10:02.629Z,20.00
2017-10-15T07:11:02.837Z,18.80
2017-10-15T07:12:03.430Z,18.50
2017-10-15T07:13:02.612Z,17.70
2017-10-15T07:14:04.056Z,17.60
2017-10-15T07:15:02.976Z,15.10
2017-10-15T07:16:03.401Z,15.90
2017-10-15T07:17:02.611Z,18.20
2017-10-15T07:18:03.208Z,16.70
2017-10-15T07:19:03.934Z,17.90
2017-10-15T07:20:04.265Z,17.60
2017-10-15T07:21:03.104Z,21.10
2017-10-15T07:22:03.131Z,17.50
2017-10-15T07:23:03.679Z,17.00
2017-10-15T07:24:02.437Z,16.80
2017-10-15T07:25:03.128Z,14.80
2017-10-15T07:26:03.080Z,13.20
2017-10-15T07:27:03.400Z,16.60
2017-10-15T07:28:03.641Z,14.50
2017-10-15T07:29:02.733Z,11.80
2017-10-15T07:30:03.728Z,12.90
2017-10-15T07:31:03.294Z,18.70
2017-10-15T07:32:03.411Z,19.70
2017-10-15T07:33:02.374Z,15.30
2017-10-15T07:34:02.240Z,15.90
2017-10-15T07:35:03.642Z,11.60
2017-10-15T07:36:02.478Z,14.10
2017-10-15T07:37:02.435Z,14.30
2017-10-15T07:38:02.310Z,14.80
2017-10-15T07:39:03.547Z,14.30
2017-10-15T07:40:02.571Z,10.60
2017-10-15T07:41:03.448Z,13.80
2017-10-15T07:42:02.874Z,15.30
2017-10-15T07:43:03.268Z,12.80
2017-10-15T07:44:02.370Z,11.90
2017-10-15T07:45:02.891Z,11.10
2017-10-15T07:46:03.756Z,14.60
2017-10-15T07:47:02.855Z,12.50
2017-10-15T07:48:03.073Z,13.20
2017-10-15T07:49:03.283Z,15.00
2017-10-15T07:50:02.566Z,12.30
2017-10-15T07:51:03.815Z,19.10
2017-10-15T07:52:03.322Z,15.00
2017-10-15T07:53:03.003Z,16.10
2017-10-15T07:54:03.128Z,13.70
2017-10-15T07:55:03.493Z,15.00
2017-10-15T07:56:02.951Z,14.30
2017-10-15T07:57:03.286Z,17.50
2017-10-15T07:58:03.167Z,11.70
2017-10-15T07:59:02.732Z,13.40
2017-10-15T08:00:03.130Z,14.90
2017-10-15T08:01:03.583Z,13.10
2017-10-15T08:02:02.649Z,12.80
2017-10-15T08:03:03.545Z,11.00
2017-10-15T08:04:03.238Z,13.20
2017-10-15T08:05:02.957Z,12.50
2017-10-15T08:06:16.741Z,13.80
2017-10-15T08:07:03.142Z,12.20
2017-10-15T08:08:03.667Z,15.40
2017-10-15T08:09:03.042Z,11.20
2017-10-15T08:10:03.381Z,13.50
2017-10-15T08:11:02.860Z,12.50
2017-10-15T08:12:03.107Z,14.50
2017-10-15T08:13:04.041Z,11.90
2017-10-15T08:14:03.153Z,12.50
2017-10-15T08:15:04.991Z,12.30
2017-10-15T08:16:03.238Z,11.20
2017-10-15T08:17:03.341Z,11.60
2017-10-15T08:18:03.793Z,16.10
2017-10-15T08:19:03.084Z,10.90
2017-10-15T08:20:03.417Z,12.40
2017-10-15T08:21:02.359Z,12.70
2017-10-15T08:22:03.045Z,11.10
2017-10-15T08:23:04.446Z,11.70
2017-10-15T08:24:02.776Z,12.80
2017-10-15T08:25:03.398Z,10.40
2017-10-15T08:26:02.628Z,15.30
2017-10-15T08:27:02.321Z,15.10
2017-10-15T08:28:02.769Z,16.30
2017-10-15T08:29:03.401Z,13.40
2017-10-15T08:30:03.040Z,13.00
2017-10-15T08:31:03.313Z,15.30
2017-10-15T08:32:02.542Z,16.90
2017-10-15T08:33:03.574Z,13.70
2017-10-15T08:34:03.990Z,11.20
2017-10-15T08:35:03.992Z,12.20
2017-10-15T08:36:03.166Z,12.00
2017-10-15T08:37:02.912Z,12.80
2017-10-15T08:38:03.420Z,13.20
2017-10-15T08:39:03.127Z,14.40
2017-10-15T08:40:03.838Z,14.80
2017-10-15T08:41:03.535Z,18.40
2017-10-15T08:42:02.727Z,12.00
2017-10-15T08:43:03.107Z,18.50
2017-10-15T08:44:02.714Z,14.90
2017-10-15T08:45:03.887Z,10.40
2017-10-15T08:46:04.718Z,9.60
2017-10-15T08:47:04.294Z,22.90
2017-10-15T08:48:02.993Z,11.00
2017-10-15T08:49:03.416Z,9.50
2017-10-15T08:50:03.208Z,8.90
2017-10-15T08:51:03.511Z,10.20
2017-10-15T08:52:03.323Z,11.20
2017-10-15T08:53:03.128Z,10.10
2017-10-15T08:54:02.732Z,10.60
2017-10-15T08:55:03.345Z,7.40
2017-10-15T08:56:02.996Z,12.50
2017-10-15T08:57:03.399Z,8.40
2017-10-15T08:58:03.448Z,7.40
2017-10-15T08:59:02.857Z,8.00
2017-10-15T09:00:03.059Z,9.60
2017-10-15T09:01:04.635Z,7.80
2017-10-15T09:02:03.215Z,8.50
2017-10-15T09:03:03.442Z,8.50
2017-10-15T09:04:02.870Z,12.10
2017-10-15T09:05:02.979Z,10.00
2017-10-15T09:06:03.666Z,11.50
2017-10-15T09:07:03.107Z,13.20
2017-10-15T09:08:03.168Z,12.20
2017-10-15T09:09:02.490Z,8.60
2017-10-15T09:10:03.230Z,10.50
2017-10-15T09:11:03.775Z,7.30
2017-10-15T09:12:03.881Z,9.00
2017-10-15T09:13:03.225Z,6.50
2017-10-15T09:14:02.939Z,7.20
2017-10-15T09:15:03.080Z,16.90
2017-10-15T09:16:03.717Z,7.50
2017-10-15T09:17:02.771Z,7.40
2017-10-15T09:18:03.344Z,7.80
2017-10-15T09:19:02.802Z,12.80
2017-10-15T09:20:03.804Z,10.90
2017-10-15T09:21:03.241Z,8.60
2017-10-15T09:22:02.816Z,7.00
2017-10-15T09:23:03.697Z,8.90
2017-10-15T09:24:03.179Z,6.10
2017-10-15T09:25:02.873Z,6.30
2017-10-15T09:26:03.395Z,7.40
2017-10-15T09:27:02.657Z,8.40
2017-10-15T09:28:03.240Z,8.20
2017-10-15T09:29:04.140Z,6.70
2017-10-15T09:30:03.383Z,10.90
2017-10-15T09:31:02.638Z,10.10
2017-10-15T09:32:02.984Z,7.90
2017-10-15T09:33:03.609Z,9.30
2017-10-15T09:34:03.565Z,8.10
2017-10-15T09:35:03.264Z,7.20
2017-10-15T09:36:02.964Z,8.60
2017-10-15T09:37:03.612Z,10.60
2017-10-15T09:38:02.803Z,7.60
2017-10-15T09:39:03.719Z,9.10
2017-10-15T09:40:03.515Z,8.10
2017-10-15T09:41:03.181Z,6.50
2017-10-15T09:42:02.629Z,7.30
2017-10-15T09:43:02.887Z,11.60
2017-10-15T09:44:03.335Z,7.00
2017-10-15T09:45:03.115Z,9.80
2017-10-15T09:46:03.219Z,9.00
2017-10-15T09:47:03.110Z,6.50
2017-10-15T09:48:03.543Z,6.50
2017-10-15T09:49:03.253Z,8.70
2017-10-15T09:50:03.199Z,8.90
2017-10-15T09:51:02.848Z,5.90
2017-10-15T09:52:02.856Z,8.40
2017-10-15T09:53:03.371Z,6.50
2017-10-15T09:54:03.007Z,8.30
2017-10-15T09:55:04.047Z,8.30
2017-10-15T09:56:03.536Z,7.80
2017-10-15T09:57:03.169Z,8.10
2017-10-15T09:58:02.654Z,7.70
2017-10-15T09:59:03.189Z,7.80
2017-10-15T10:00:02.303Z,6.50
2017-10-15T10:01:03.815Z,7.30
2017-10-15T10:02:03.358Z,7.00
2017-10-15T10:03:02.418Z,5.70
2017-10-15T10:04:02.979Z,5.90
2017-10-15T10:05:03.658Z,6.40
2017-10-15T10:06:03.626Z,14.40
2017-10-15T10:07:02.556Z,8.30
2017-10-15T10:08:02.569Z,10.30
2017-10-15T10:09:03.280Z,6.40
2017-10-15T10:10:02.516Z,7.80
2017-10-15T10:11:02.584Z,9.40
2017-10-15T10:12:03.251Z,9.70
2017-10-15T10:13:02.345Z,8.10
2017-10-15T10:14:02.634Z,7.50
2017-10-15T10:15:03.170Z,7.30
2017-10-15T10:16:02.540Z,7.70
2017-10-15T10:17:02.735Z,9.40
2017-10-15T10:18:04.110Z,12.40
2017-10-15T10:19:02.446Z,7.50
2017-10-15T10:20:02.981Z,9.00
2017-10-15T10:21:03.279Z,8.70
2017-10-15T10:22:02.586Z,8.10
2017-10-15T10:23:03.137Z,6.70
2017-10-15T10:24:04.105Z,8.50
2017-10-15T10:25:03.620Z,10.50
2017-10-15T10:26:03.082Z,7.20
2017-10-15T10:27:03.418Z,7.60
2017-10-15T10:28:02.684Z,6.70
2017-10-15T10:29:04.026Z,7.70
2017-10-15T10:30:03.974Z,6.20
2017-10-15T10:31:04.243Z,8.10
2017-10-15T10:32:02.785Z,11.90
2017-10-15T10:33:03.849Z,7.20
2017-10-15T10:34:04.284Z,6.60
2017-10-15T10:35:02.742Z,6.90
2017-10-15T10:36:03.336Z,7.80
2017-10-15T10:37:02.608Z,8.60
2017-10-15T10:38:03.711Z,10.10
2017-10-15T10:39:03.846Z,10.00
2017-10-15T10:40:03.271Z,8.30
2017-10-15T10:41:03.701Z,11.60
2017-10-15T10:42:03.259Z,10.40
2017-10-15T10:43:02.536Z,6.70
2017-10-15T10:44:02.988Z,6.40
2017-10-15T10:45:03.516Z,7.30
2017-10-15T10:46:02.904Z,8.20
2017-10-15T10:47:03.321Z,9.10
2017-10-15T10:48:02.455Z,8.50
2017-10-15T10:49:02.996Z,9.20
2017-10-15T10:50:03.951Z,6.40
2017-10-15T10:51:03.189Z,11.00
2017-10-15T10:52:02.237Z,7.10
2017-10-15T10:53:02.777Z,6.70
2017-10-15T10:54:03.061Z,8.30
2017-10-15T10:55:02.699Z,6.00
2017-10-15T10:56:03.166Z,9.20
2017-10-15T10:57:02.803Z,12.10
2017-10-15T10:58:03.178Z,14.00
2017-10-15T10:59:02.501Z,6.70
2017-10-15T11:00:02.514Z,7.00
2017-10-15T11:01:04.156Z,7.30
2017-10-15T11:02:02.827Z,7.40
2017-10-15T11:03:03.317Z,11.80
2017-10-15T11:04:03.231Z,6.20
2017-10-15T11:05:03.952Z,5.60
2017-10-15T11:06:03.335Z,7.90
2017-10-15T11:07:03.724Z,6.00
2017-10-15T11:08:03.193Z,6.60
2017-10-15T11:09:03.845Z,8.70
2017-10-15T11:10:03.536Z,5.80
2017-10-15T11:11:02.837Z,7.70
2017-10-15T11:12:03.769Z,6.70
2017-10-15T11:13:03.388Z,6.10
2017-10-15T11:14:02.951Z,5.70
2017-10-15T11:15:03.486Z,7.10
2017-10-15T11:16:02.981Z,6.90
2017-10-15T11:17:02.469Z,7.60
2017-10-15T11:18:03.334Z,6.70
2017-10-15T11:19:02.449Z,8.60
2017-10-15T11:20:03.092Z,6.90
2017-10-15T11:21:03.590Z,9.00
2017-10-15T11:22:03.024Z,7.80
2017-10-15T11:23:03.562Z,8.50
2017-10-15T11:24:03.313Z,7.30
2017-10-15T11:25:03.211Z,4.50
2017-10-15T11:26:02.886Z,8.10
2017-10-15T11:27:03.373Z,5.10
2017-10-15T11:28:03.073Z,6.70
2017-10-15T11:29:03.397Z,6.30
2017-10-15T11:30:02.501Z,8.50
2017-10-15T11:31:02.611Z,5.80
2017-10-15T11:32:03.681Z,8.30
2017-10-15T11:33:03.784Z,6.70
2017-10-15T11:34:03.641Z,5.30
2017-10-15T11:35:03.884Z,9.60
2017-10-15T11:36:04.011Z,6.60
2017-10-15T11:37:03.589Z,5.90
2017-10-15T11:38:03.819Z,8.00
2017-10-15T11:39:03.871Z,6.40
2017-10-15T11:40:03.565Z,6.30
2017-10-15T11:41:03.511Z,5.60
2017-10-15T11:42:02.597Z,6.00
2017-10-15T11:43:02.988Z,8.70
2017-10-15T11:44:03.744Z,7.70
2017-10-15T11:45:03.258Z,7.00
2017-10-15T11:46:02.866Z,7.20
2017-10-15T11:47:02.459Z,8.90
2017-10-15T11:48:03.779Z,5.70
2017-10-15T11:49:03.328Z,7.90
2017-10-15T11:50:02.910Z,5.70
2017-10-15T11:51:02.654Z,8.30
2017-10-15T11:52:02.736Z,5.80
2017-10-15T11:53:03.374Z,7.80
2017-10-15T11:54:03.006Z,9.50
2017-10-15T11:55:03.102Z,9.00
2017-10-15T11:56:02.658Z,13.70
2017-10-15T11:57:03.323Z,11.20
2017-10-15T11:58:03.034Z,6.90
2017-10-15T11:59:03.540Z,7.30
2017-10-15T12:00:03.526Z,14.80
2017-10-15T12:01:02.978Z,9.10
2017-10-15T12:02:03.173Z,8.70
2017-10-15T12:03:02.802Z,7.70
2017-10-15T12:04:03.312Z,13.20
2017-10-15T12:05:02.818Z,7.80
2017-10-15T12:06:03.457Z,7.60
2017-10-15T12:07:02.894Z,9.90
2017-10-15T12:08:02.861Z,9.60
2017-10-15T12:09:03.966Z,8.40
2017-10-15T12:10:02.539Z,8.20
2017-10-15T12:11:03.974Z,7.80
2017-10-15T12:12:03.656Z,5.70
2017-10-15T12:13:02.732Z,7.30
2017-10-15T12:14:03.226Z,8.60
2017-10-15T12:15:02.817Z,6.20
2017-10-15T12:16:04.357Z,8.10
2017-10-15T12:17:02.985Z,7.20
2017-10-15T12:18:03.148Z,7.80
2017-10-15T12:19:02.708Z,6.70
2017-10-15T12:20:02.689Z,6.80
2017-10-15T12:21:03.240Z,9.30
2017-10-15T12:22:04.836Z,7.80
2017-10-15T12:23:02.839Z,7.70
2017-10-15T12:24:02.961Z,6.20
2017-10-15T12:25:03.199Z,12.60
2017-10-15T12:26:02.543Z,5.40
2017-10-15T12:27:03.929Z,6.20
2017-10-15T12:28:02.961Z,8.40
2017-10-15T12:29:04.759Z,7.00
2017-10-15T12:30:03.071Z,8.00
2017-10-15T12:31:02.723Z,10.80
2017-10-15T12:32:03.269Z,8.20
2017-10-15T12:33:05.322Z,8.00
2017-10-15T12:34:02.749Z,8.90
2017-10-15T12:35:03.259Z,9.40
2017-10-15T12:36:02.848Z,6.90
2017-10-15T12:37:04.054Z,6.80
2017-10-15T12:38:02.625Z,6.80
2017-10-15T12:39:03.334Z,10.70
2017-10-15T12:40:02.806Z,8.20
2017-10-15T12:41:03.191Z,7.80
2017-10-15T12:42:02.990Z,6.10
2017-10-15T12:43:02.680Z,12.50
2017-10-15T12:44:03.290Z,10.40
2017-10-15T12:45:03.475Z,8.40
2017-10-15T12:46:03.125Z,6.10
2017-10-15T12:47:03.531Z,6.40
2017-10-15T12:48:02.970Z,8.10
2017-10-15T12:49:03.162Z,7.70